Time;durP1;ratioP1;P1;durP2;ratioP2;P2;SDS_P1;SDS_P2;PMS_P1;PMS_P2;Temp;Humidity;BMP_temperature;BMP_pressure;BME280_temperature;BME280_humidity;BME280_pressure;Samples;Min_cycle;Max_cycle;Signal;HPM_P1;HPM_P2
2023/03/30 00:01:20;;;;;;;1.88;0.80;;;;;;;13.40;74.18;100595.28;5036923;27;99383;-29
2023/03/30 00:03:46;;;;;;;1.05;0.88;;;;;;;13.37;73.87;100588.19;5037119;27;97754;-29
2023/03/30 00:06:20;;;;;;;1.70;1.00;;;;;;;13.34;74.16;100594.75;5035719;28;96690;-31
2023/03/30 00:08:46;;;;;;;1.58;0.63;;;;;;;13.34;74.19;100588.44;5037233;27;96652;-30
2023/03/30 00:11:14;;;;;;;4.35;0.80;;;;;;;13.33;73.80;100579.41;5034317;28;101075;-30
2023/03/30 00:13:41;;;;;;;1.27;0.68;;;;;;;13.32;74.23;100585.84;5035528;28;101773;-31
2023/03/30 00:16:08;;;;;;;1.65;0.70;;;;;;;13.31;74.05;100591.41;5035812;28;96698;-29
2023/03/30 00:18:35;;;;;;;1.20;0.90;;;;;;;13.31;74.64;100594.97;5035627;28;96849;-31
2023/03/30 00:21:01;;;;;;;1.02;0.80;;;;;;;13.28;74.53;100607.97;5034781;28;101092;-29
2023/03/30 00:23:27;;;;;;;3.72;0.75;;;;;;;13.25;74.61;100603.59;5036790;27;97316;-29
2023/03/30 00:25:52;;;;;;;3.03;1.00;;;;;;;13.21;74.60;100618.41;5036951;28;96480;-29
2023/03/30 00:28:20;;;;;;;1.85;0.75;;;;;;;13.14;74.76;100615.28;5036115;27;96856;-29
2023/03/30 00:30:47;;;;;;;1.63;1.15;;;;;;;13.11;74.99;100612.81;5035135;28;101108;-28
2023/03/30 00:33:12;;;;;;;2.83;0.95;;;;;;;13.09;75.08;100609.34;5035274;28;101238;-29
2023/03/30 00:35:38;;;;;;;1.20;0.65;;;;;;;13.08;74.71;100599.44;5035245;28;96728;-30
2023/03/30 00:38:04;;;;;;;1.83;1.00;;;;;;;13.05;75.17;100593.38;5035701;28;96847;-30
2023/03/30 00:40:31;;;;;;;3.75;1.02;;;;;;;13.06;74.78;100590.53;5035045;28;101121;-29
2023/03/30 00:43:00;;;;;;;2.67;0.73;;;;;;;13.05;75.11;100585.22;5036553;28;97301;-29
2023/03/30 00:45:30;;;;;;;5.43;1.20;;;;;;;12.99;74.97;100567.53;5036320;27;96451;-30
2023/03/30 00:48:07;;;;;;;1.33;0.63;;;;;;;12.97;75.11;100572.22;5035202;28;96917;-29
2023/03/30 00:50:42;;;;;;;1.23;1.00;;;;;;;12.93;75.12;100578.84;5034870;28;100601;-29
2023/03/30 00:53:16;;;;;;;1.35;1.05;;;;;;;12.88;75.42;100576.47;5034699;27;101116;-29
2023/03/30 00:55:42;;;;;;;3.45;0.90;;;;;;;12.86;75.51;100589.31;5035211;28;96615;-29
2023/03/30 00:58:11;;;;;;;2.17;1.00;;;;;;;12.83;75.44;100581.41;5036411;27;96817;-29
2023/03/30 01:00:38;;;;;;;1.35;0.88;;;;;;;12.79;75.79;100571.72;5034694;28;101235;-30
2023/03/30 01:03:10;;;;;;;1.33;0.60;;;;;;;12.77;75.80;100579.13;5034971;28;101093;-29
2023/03/30 01:05:40;;;;;;;1.45;0.98;;;;;;;12.74;75.86;100582.09;5035134;28;96791;-28
2023/03/30 01:08:06;;;;;;;1.48;0.95;;;;;;;12.72;75.92;100576.75;5034931;28;96872;-30
2023/03/30 01:10:32;;;;;;;1.20;0.75;;;;;;;12.70;76.20;100586.00;5034092;28;101021;-29
2023/03/30 01:12:58;;;;;;;1.65;0.80;;;;;;;12.68;76.13;100572.56;5034536;28;100716;-29
2023/03/30 01:15:24;;;;;;;3.67;0.70;;;;;;;12.66;76.46;100565.50;5036111;27;100304;-29
2023/03/30 01:18:05;;;;;;;1.00;0.73;;;;;;;12.68;76.24;100577.09;5034837;28;96898;-29
2023/03/30 01:21:11;;;;;;;2.13;1.02;;;;;;;12.65;76.41;100582.78;5034389;28;101010;-29
2023/03/30 01:23:49;;;;;;;1.25;0.68;;;;;;;12.60;76.50;100550.50;5035408;27;99115;-32
2023/03/30 01:26:27;;;;;;;2.25;1.15;;;;;;;12.61;76.55;100549.53;5035811;27;96607;-30
2023/03/30 01:28:52;;;;;;;1.38;0.98;;;;;;;12.61;76.39;100562.22;5034904;28;96812;-29
2023/03/30 01:31:51;;;;;;;1.20;0.70;;;;;;;12.57;76.59;100552.59;5035638;27;99454;-29
2023/03/30 01:34:38;;;;;;;2.00;1.00;;;;;;;12.57;76.70;100539.88;5034129;28;100784;-29
2023/03/30 01:37:07;;;;;;;1.10;0.68;;;;;;;12.57;76.61;100544.44;5035195;28;96685;-31
2023/03/30 01:39:38;;;;;;;2.22;1.00;;;;;;;12.54;76.73;100543.69;5034317;28;96868;-29
2023/03/30 01:42:25;;;;;;;1.13;0.88;;;;;;;12.53;76.87;100532.94;5035847;28;97512;-29
2023/03/30 01:45:19;;;;;;;1.35;0.68;;;;;;;12.52;76.68;100531.22;5035474;27;99504;-29
2023/03/30 01:47:52;;;;;;;2.13;0.85;;;;;;;12.48;76.95;100524.25;5034299;28;96584;-29
2023/03/30 01:50:27;;;;;;;2.70;0.75;;;;;;;12.46;77.07;100518.06;5034367;28;96851;-28
2023/03/30 01:52:59;;;;;;;2.70;1.00;;;;;;;12.41;77.24;100525.69;5033893;28;99874;-30
2023/03/30 01:55:38;;;;;;;2.35;1.00;;;;;;;12.40;77.28;100538.44;5034265;28;100811;-29
2023/03/30 01:58:14;;;;;;;0.80;0.60;;;;;;;12.38;77.25;100537.66;5034316;28;96617;-29
2023/03/30 02:00:42;;;;;;;4.25;0.77;;;;;;;12.37;77.14;100544.09;5034275;28;96703;-30
2023/03/30 02:03:15;;;;;;;2.20;1.00;;;;;;;12.37;77.37;100554.97;5033216;28;101286;-29
2023/03/30 02:05:44;;;;;;;2.22;1.08;;;;;;;12.34;77.23;100541.59;5035065;27;99627;-30
2023/03/30 02:08:17;;;;;;;1.40;0.93;;;;;;;12.34;77.40;100549.72;5033584;27;96665;-30
2023/03/30 02:10:45;;;;;;;5.25;1.00;;;;;;;12.35;77.30;100550.59;5033895;28;96711;-29
2023/03/30 02:13:11;;;;;;;2.88;1.27;;;;;;;12.39;77.25;100549.38;5033681;28;101043;-29
2023/03/30 02:15:47;;;;;;;3.38;0.90;;;;;;;12.37;77.41;100543.19;5033484;28;100724;-30
2023/03/30 02:18:12;;;;;;;0.93;0.70;;;;;;;12.39;77.59;100546.66;5033735;28;96634;-29
2023/03/30 02:20:38;;;;;;;1.10;0.80;;;;;;;12.43;77.67;100556.34;5035555;27;96780;-30
2023/03/30 02:23:05;;;;;;;5.15;1.02;;;;;;;12.44;77.63;100541.75;5033497;28;101013;-30
2023/03/30 02:25:32;;;;;;;2.15;0.68;;;;;;;12.46;77.71;100540.66;5034897;27;97844;-29
2023/03/30 02:27:57;;;;;;;2.25;0.70;;;;;;;12.49;77.49;100537.75;5032282;28;96930;-30
2023/03/30 02:30:23;;;;;;;1.63;0.60;;;;;;;12.50;77.77;100538.59;5035273;27;96510;-29
2023/03/30 02:32:52;;;;;;;2.90;0.60;;;;;;;12.54;77.84;100549.13;5034852;27;97409;-29
2023/03/30 02:35:47;;;;;;;2.70;0.60;;;;;;;12.57;78.26;100549.88;5032013;27;100925;-29
2023/03/30 02:38:27;;;;;;;2.33;1.00;;;;;;;12.54;78.50;100540.13;5033891;28;96662;-29
2023/03/30 02:41:17;;;;;;;4.03;1.02;;;;;;;12.53;78.71;100527.50;5033640;28;96772;-29
2023/03/30 02:44:08;;;;;;;0.95;0.57;;;;;;;12.48;79.34;100518.81;5034556;28;97928;-30
2023/03/30 02:46:49;;;;;;;2.72;0.50;;;;;;;12.45;79.04;100508.19;5035161;28;97923;-30
2023/03/30 02:49:17;;;;;;;0.80;0.57;;;;;;;12.44;78.88;100518.22;5035117;28;96606;-29
2023/03/30 02:51:50;;;;;;;2.90;0.75;;;;;;;12.41;79.50;100514.84;5034949;27;96940;-29
2023/03/30 02:54:30;;;;;;;3.33;0.90;;;;;;;12.40;79.54;100515.84;5033745;27;99083;-29
2023/03/30 02:57:03;;;;;;;1.90;0.68;;;;;;;12.39;79.60;100517.66;5033142;28;100918;-29
2023/03/30 02:59:35;;;;;;;0.90;0.43;;;;;;;12.36;79.72;100514.31;5033486;28;96614;-29
2023/03/30 03:02:11;;;;;;;0.57;0.52;;;;;;;12.37;79.78;100516.03;5033406;28;96766;-29
2023/03/30 03:04:37;;;;;;;2.30;0.80;;;;;;;12.36;80.08;100508.88;5032967;28;101557;-29
2023/03/30 03:07:03;;;;;;;1.67;0.60;;;;;;;12.37;79.82;100522.38;5032904;28;101271;-29
2023/03/30 03:09:28;;;;;;;1.17;0.60;;;;;;;12.39;79.92;100516.78;5034372;27;96590;-29
2023/03/30 03:11:54;;;;;;;1.92;0.60;;;;;;;12.43;80.06;100521.03;5034980;27;96822;-29
2023/03/30 03:14:20;;;;;;;2.05;0.70;;;;;;;12.42;80.68;100508.41;5034228;28;98038;-30
2023/03/30 03:16:45;;;;;;;0.65;0.47;;;;;;;12.42;81.58;100514.72;5034380;28;97859;-29
2023/03/30 03:19:11;;;;;;;1.27;0.60;;;;;;;12.45;81.20;100503.63;5032486;28;96573;-29
2023/03/30 03:21:36;;;;;;;1.13;0.55;;;;;;;12.49;80.96;100504.28;5034278;27;96859;-29
2023/03/30 03:24:03;;;;;;;1.23;0.40;;;;;;;12.49;81.27;100494.28;5034255;28;98508;-29
2023/03/30 03:26:28;;;;;;;3.13;0.30;;;;;;;12.53;81.06;100503.03;5032313;28;102339;-31
2023/03/30 03:28:54;;;;;;;0.88;0.40;;;;;;;12.52;81.01;100504.03;5033810;27;96819;-30
2023/03/30 03:31:19;;;;;;;0.80;0.40;;;;;;;12.52;81.66;100491.31;5033953;27;97773;-30
2023/03/30 03:33:44;;;;;;;1.85;0.55;;;;;;;12.56;81.02;100505.56;5032814;28;98244;-29
2023/03/30 03:36:10;;;;;;;1.35;0.28;;;;;;;12.57;81.51;100500.97;5034342;27;97730;-30
2023/03/30 03:38:36;;;;;;;2.33;0.52;;;;;;;12.56;81.65;100500.13;5032854;28;96554;-29
2023/03/30 03:41:03;;;;;;;1.35;0.43;;;;;;;12.57;82.08;100503.69;5032774;28;96851;-30
2023/03/30 03:43:28;;;;;;;6.50;0.88;;;;;;;12.57;81.58;100490.97;5031846;28;101141;-29
2023/03/30 03:45:54;;;;;;;2.55;1.15;;;;;;;12.60;81.13;100498.03;5034985;27;99535;-31
2023/03/30 03:48:21;;;;;;;3.03;0.73;;;;;;;12.59;81.97;100501.72;5037118;27;96732;-30
2023/03/30 03:50:56;;;;;;;3.45;0.98;;;;;;;12.58;82.14;100491.84;5036151;27;96959;-30
2023/03/30 03:53:23;;;;;;;4.80;0.70;;;;;;;12.56;82.16;100494.69;5035903;28;101201;-29
2023/03/30 03:55:48;;;;;;;2.75;0.70;;;;;;;12.56;81.91;100505.56;5035750;28;101269;-29
2023/03/30 03:58:14;;;;;;;1.48;0.80;;;;;;;12.56;82.03;100500.13;5037612;27;96632;-30
2023/03/30 04:00:40;;;;;;;0.35;0.28;;;;;;;12.56;83.13;100505.56;5036112;28;96868;-30
2023/03/30 04:03:06;;;;;;;2.60;0.80;;;;;;;12.52;82.51;100509.47;5036834;27;99252;-29
2023/03/30 04:05:32;;;;;;;3.35;0.40;;;;;;;12.48;83.77;100502.53;5037110;27;98247;-29
2023/03/30 04:07:58;;;;;;;1.75;0.75;;;;;;;12.42;83.95;100497.53;5035342;28;96754;-29
2023/03/30 04:10:24;;;;;;;1.95;0.75;;;;;;;12.40;83.49;100516.69;5037377;27;96822;-31
2023/03/30 04:12:49;;;;;;;2.03;0.73;;;;;;;12.37;84.23;100516.94;5035603;28;101047;-29
2023/03/30 04:15:15;;;;;;;3.13;0.77;;;;;;;12.31;84.67;100510.09;5036623;28;98006;-29
2023/03/30 04:17:40;;;;;;;4.35;0.73;;;;;;;12.27;85.61;100522.16;5037211;27;96532;-30
2023/03/30 04:20:10;;;;;;;1.42;0.50;;;;;;;12.23;85.83;100520.66;5036987;27;96810;-29
2023/03/30 04:22:36;;;;;;;4.57;0.98;;;;;;;12.20;85.81;100511.84;5036733;27;99338;-30
2023/03/30 04:25:05;;;;;;;6.40;0.70;;;;;;;12.17;87.08;100518.38;5035781;28;101147;-29
2023/03/30 04:27:31;;;;;;;3.65;0.75;;;;;;;12.13;87.02;100507.84;5036061;27;96888;-30
2023/03/30 04:29:57;;;;;;;3.10;0.80;;;;;;;12.08;87.94;100503.66;5035469;28;97031;-29
2023/03/30 04:32:25;;;;;;;4.35;0.82;;;;;;;12.05;87.42;100501.16;5036182;27;97958;-29
2023/03/30 04:34:53;;;;;;;2.70;0.82;;;;;;;12.03;87.36;100494.97;5036098;27;99647;-29
2023/03/30 04:37:22;;;;;;;1.33;0.60;;;;;;;12.02;87.40;100501.38;5036760;27;96581;-30
2023/03/30 04:39:49;;;;;;;1.67;0.75;;;;;;;12.01;88.04;100501.47;5035426;28;96825;-31
2023/03/30 04:42:18;;;;;;;3.10;1.02;;;;;;;11.98;87.73;100485.44;5034832;28;101380;-29
2023/03/30 04:44:44;;;;;;;6.32;0.88;;;;;;;11.96;87.47;100490.97;5035124;28;100926;-30
2023/03/30 04:47:09;;;;;;;3.90;0.65;;;;;;;11.96;87.39;100492.81;5036431;28;96639;-30
2023/03/30 04:49:34;;;;;;;3.65;0.80;;;;;;;11.93;87.54;100490.34;5037046;27;96952;-28
2023/03/30 04:52:00;;;;;;;5.38;0.88;;;;;;;11.89;87.63;100486.97;5035842;27;97436;-28
2023/03/30 04:54:25;;;;;;;3.35;0.80;;;;;;;11.87;87.16;100484.38;5036437;28;97817;-29
2023/03/30 04:56:51;;;;;;;4.97;0.88;;;;;;;11.85;87.52;100489.00;5035838;27;96634;-29
2023/03/30 04:59:16;;;;;;;4.93;0.90;;;;;;;11.79;87.19;100481.31;5036082;27;96624;-29
2023/03/30 05:01:41;;;;;;;3.17;0.57;;;;;;;11.76;87.87;100483.38;5036384;28;97968;-29
2023/03/30 05:04:10;;;;;;;2.33;0.98;;;;;;;11.71;87.46;100474.72;5036213;27;97818;-29
2023/03/30 05:06:35;;;;;;;2.38;0.90;;;;;;;11.68;87.84;100475.81;5036479;27;96486;-30
2023/03/30 05:09:00;;;;;;;2.67;0.93;;;;;;;11.64;87.83;100493.28;5036548;27;96771;-29
2023/03/30 05:11:26;;;;;;;2.75;0.73;;;;;;;11.63;87.17;100477.97;5033971;27;99025;-30
2023/03/30 05:13:52;;;;;;;5.22;1.08;;;;;;;11.62;87.65;100492.50;5033855;27;99208;-30
2023/03/30 05:16:18;;;;;;;6.00;0.88;;;;;;;11.58;87.31;100481.00;5032362;28;97231;-34
2023/03/30 05:18:44;;;;;;;4.72;1.08;;;;;;;11.55;87.97;100488.50;5032368;28;97065;-33
2023/03/30 05:21:09;;;;;;;7.68;1.20;;;;;;;11.50;87.75;100474.41;5032988;27;97938;-30
2023/03/30 05:23:35;;;;;;;5.25;0.98;;;;;;;11.48;87.86;100480.78;5033587;27;99440;-29
2023/03/30 05:26:02;;;;;;;7.78;1.67;;;;;;;11.44;87.57;100484.72;5035090;28;96670;-30
2023/03/30 05:28:27;;;;;;;4.53;1.17;;;;;;;11.41;88.18;100478.63;5033831;28;96998;-31
2023/03/30 05:30:53;;;;;;;11.05;1.50;;;;;;;11.38;87.92;100492.44;5036069;27;97333;-29
2023/03/30 05:33:19;;;;;;;5.97;1.00;;;;;;;11.36;87.91;100489.81;5034124;28;101248;-29
2023/03/30 05:35:45;;;;;;;4.53;0.80;;;;;;;11.33;88.15;100492.75;5035529;27;96476;-29
2023/03/30 05:38:11;;;;;;;1.25;0.63;;;;;;;11.33;87.89;100495.47;5034998;28;96835;-31
2023/03/30 05:40:36;;;;;;;5.70;1.23;;;;;;;11.30;87.69;100495.69;5035679;27;97487;-30
2023/03/30 05:43:02;;;;;;;7.65;0.75;;;;;;;11.25;88.08;100497.84;5035277;28;99373;-30
2023/03/30 05:45:27;;;;;;;4.93;1.17;;;;;;;11.22;88.00;100500.75;5035024;28;96587;-30
2023/03/30 05:47:53;;;;;;;5.47;1.20;;;;;;;11.23;87.96;100502.50;5035732;27;96798;-29
2023/03/30 05:50:19;;;;;;;7.88;0.95;;;;;;;11.21;87.82;100496.31;5035326;27;99402;-29
2023/03/30 05:52:45;;;;;;;4.78;1.15;;;;;;;11.18;87.91;100508.25;5034006;28;100908;-29
2023/03/30 05:55:10;;;;;;;4.85;1.38;;;;;;;11.21;87.57;100518.88;5035349;27;96659;-29
2023/03/30 05:57:36;;;;;;;5.93;1.05;;;;;;;11.21;87.79;100509.88;5035673;27;96778;-29
2023/03/30 06:00:05;;;;;;;9.82;1.40;;;;;;;11.23;87.38;100519.63;5035098;27;99223;-29
2023/03/30 06:02:31;;;;;;;6.13;0.90;;;;;;;11.29;87.47;100521.03;5034240;28;100761;-29
2023/03/30 06:04:56;;;;;;;6.45;1.38;;;;;;;11.28;87.30;100516.59;5035552;27;96429;-30
2023/03/30 06:07:23;;;;;;;5.85;1.30;;;;;;;11.36;87.32;100510.66;5035436;27;96621;-29
2023/03/30 06:09:48;;;;;;;2.95;1.08;;;;;;;11.39;86.93;100524.88;5032982;27;99757;-29
2023/03/30 06:12:14;;;;;;;3.25;0.85;;;;;;;11.39;87.08;100524.88;5035058;28;97400;-29
2023/03/30 06:14:39;;;;;;;7.28;0.98;;;;;;;11.37;87.29;100520.50;5035276;27;96489;-30
2023/03/30 06:17:05;;;;;;;5.28;1.10;;;;;;;11.36;86.81;100530.47;5035275;27;96808;-29
2023/03/30 06:19:30;;;;;;;8.77;1.02;;;;;;;11.38;86.72;100530.38;5035076;28;97921;-31
2023/03/30 06:21:55;;;;;;;3.95;0.85;;;;;;;11.46;86.74;100537.03;5034991;27;97805;-33
2023/03/30 06:24:21;;;;;;;5.38;1.13;;;;;;;11.52;86.38;100543.84;5035269;27;96640;-29
2023/03/30 06:26:47;;;;;;;1.30;0.68;;;;;;;11.53;86.49;100539.28;5035301;27;96894;-29
2023/03/30 06:29:13;;;;;;;4.40;1.20;;;;;;;11.53;86.44;100539.28;5034633;28;97418;-29
2023/03/30 06:31:38;;;;;;;4.72;1.38;;;;;;;11.55;86.04;100549.03;5033237;28;100795;-29
2023/03/30 06:34:04;;;;;;;2.45;1.05;;;;;;;11.54;86.32;100554.59;5035042;27;96539;-29
2023/03/30 06:36:29;;;;;;;2.20;0.93;;;;;;;11.51;86.20;100538.50;5034871;27;96816;-30
2023/03/30 06:38:54;;;;;;;7.15;1.13;;;;;;;11.50;86.08;100550.34;5034254;27;99325;-29
2023/03/30 06:41:20;;;;;;;1.27;0.75;;;;;;;11.48;85.98;100554.03;5034759;27;97883;-29
2023/03/30 06:43:46;;;;;;;8.98;1.83;;;;;;;11.49;86.18;100552.22;5034951;27;96512;-30
2023/03/30 06:46:12;;;;;;;4.28;1.38;;;;;;;11.50;86.41;100561.22;5034845;27;96813;-30
2023/03/30 06:48:38;;;;;;;7.57;1.02;;;;;;;11.51;86.24;100563.78;5034255;27;99396;-30
2023/03/30 06:51:04;;;;;;;5.50;1.10;;;;;;;11.52;86.15;100575.53;5034671;28;99211;-31
2023/03/30 06:53:29;;;;;;;8.10;1.10;;;;;;;11.52;85.86;100568.25;5033771;28;96695;-30
2023/03/30 06:55:56;;;;;;;8.70;1.15;;;;;;;11.55;86.05;100580.72;5034651;27;96798;-30
2023/03/30 06:58:23;;;;;;;5.40;1.27;;;;;;;11.53;85.99;100580.84;5034147;27;97423;-29
2023/03/30 07:00:49;;;;;;;4.55;1.13;;;;;;;11.52;86.00;100587.25;5032939;28;101381;-29
2023/03/30 07:03:17;;;;;;;5.68;0.95;;;;;;;11.55;86.15;100588.88;5034722;28;96559;-29
2023/03/30 07:05:46;;;;;;;8.65;1.48;;;;;;;11.66;85.99;100589.00;5033373;28;96995;-31
2023/03/30 07:08:11;;;;;;;4.70;1.35;;;;;;;11.73;85.49;100593.00;5032585;28;101151;-29
2023/03/30 07:10:36;;;;;;;7.53;1.27;;;;;;;11.77;85.83;100594.50;5034079;27;99588;-30
2023/03/30 07:13:02;;;;;;;4.60;1.20;;;;;;;11.81;85.44;100597.91;5034659;27;96844;-29
2023/03/30 07:15:27;;;;;;;4.10;1.58;;;;;;;11.84;84.99;100598.53;5035360;27;96814;-30
2023/03/30 07:17:52;;;;;;;4.00;0.65;;;;;;;11.82;85.44;100594.19;5034269;27;97336;-29
2023/03/30 07:20:19;;;;;;;10.15;1.33;;;;;;;11.85;85.36;100603.00;5034623;27;97327;-30
2023/03/30 07:22:44;;;;;;;4.18;1.13;;;;;;;11.87;85.11;100595.66;5035922;28;96513;-29
2023/03/30 07:25:10;;;;;;;10.20;1.67;;;;;;;11.92;85.05;100597.16;5037873;27;96831;-29
2023/03/30 07:27:36;;;;;;;5.88;1.35;;;;;;;11.90;85.17;100606.28;5037212;28;97952;-30
2023/03/30 07:30:04;;;;;;;6.22;0.90;;;;;;;11.92;85.46;100597.16;5037679;28;97977;-29
2023/03/30 07:32:30;;;;;;;3.55;0.90;;;;;;;11.88;85.52;100608.22;5036386;28;96767;-30
2023/03/30 07:34:56;;;;;;;6.20;1.10;;;;;;;11.86;85.53;100615.56;5037269;27;96839;-29
2023/03/30 07:37:22;;;;;;;4.60;1.10;;;;;;;11.83;85.70;100601.38;5035394;28;101039;-36
2023/03/30 07:39:47;;;;;;;10.93;1.75;;;;;;;11.84;85.53;100612.09;5037122;27;98337;-30
2023/03/30 07:42:13;;;;;;;6.05;0.98;;;;;;;11.83;85.38;100631.22;5037926;27;96610;-31
2023/03/30 07:44:40;;;;;;;6.80;1.25;;;;;;;11.83;85.60;100625.78;5037779;27;96778;-29
2023/03/30 07:47:05;;;;;;;5.50;1.40;;;;;;;11.83;85.89;100636.66;5036682;28;99943;-29
2023/03/30 07:49:32;;;;;;;3.90;0.68;;;;;;;11.83;85.74;100634.81;5037419;28;97844;-29
2023/03/30 07:51:58;;;;;;;5.07;1.25;;;;;;;11.81;85.71;100627.75;5035987;28;97023;-29
2023/03/30 07:54:23;;;;;;;11.38;1.50;;;;;;;11.85;86.00;100624.72;5036085;27;96758;-29
2023/03/30 07:56:51;;;;;;;14.30;1.58;;;;;;;11.84;86.13;100631.09;5037350;28;98108;-29
2023/03/30 07:59:21;;;;;;;5.05;1.10;;;;;;;11.90;85.91;100641.56;5036931;27;99175;-29
2023/03/30 08:01:50;;;;;;;7.75;1.50;;;;;;;11.87;85.58;100649.06;5036086;28;96515;-29
2023/03/30 08:04:17;;;;;;;8.90;2.22;;;;;;;11.86;85.85;100645.44;5036314;28;96950;-29
2023/03/30 08:06:43;;;;;;;1.52;0.77;;;;;;;11.89;85.89;100641.66;5035523;28;101424;-29
2023/03/30 08:09:09;;;;;;;5.18;1.20;;;;;;;11.92;86.39;100651.44;5036800;27;99395;-29
2023/03/30 08:11:35;;;;;;;4.70;0.98;;;;;;;11.88;86.26;100654.38;5035360;28;96646;-29
2023/03/30 08:14:02;;;;;;;7.03;1.92;;;;;;;11.86;86.24;100650.84;5037277;27;96756;-29
2023/03/30 08:16:27;;;;;;;4.68;0.98;;;;;;;11.95;86.76;100657.53;5035386;28;101111;-29
2023/03/30 08:18:53;;;;;;;6.50;1.58;;;;;;;12.03;86.39;100665.13;5036890;27;97825;-29
2023/03/30 08:21:20;;;;;;;3.45;1.23;;;;;;;12.13;86.63;100660.78;5036991;27;96641;-29
2023/03/30 08:23:45;;;;;;;4.80;1.20;;;;;;;12.15;86.03;100645.25;5035697;28;96923;-29
2023/03/30 08:26:11;;;;;;;10.02;1.92;;;;;;;12.17;85.44;100650.56;5036610;28;98518;-29
2023/03/30 08:28:36;;;;;;;12.98;1.25;;;;;;;12.17;85.94;100648.72;5036614;27;97385;-29
2023/03/30 08:31:05;;;;;;;6.05;0.95;;;;;;;12.56;85.47;100644.13;5035824;28;96616;-30
2023/03/30 08:33:30;;;;;;;6.40;0.88;;;;;;;12.90;83.75;100652.50;5034555;27;96921;-29
2023/03/30 08:35:56;;;;;;;9.60;1.25;;;;;;;13.09;82.78;100654.72;5035711;28;99417;-29
2023/03/30 08:38:21;;;;;;;11.32;2.28;;;;;;;13.12;82.11;100655.31;5036422;28;98165;-29
2023/03/30 08:40:48;;;;;;;10.00;1.92;;;;;;;13.06;82.03;100652.19;5036618;27;96587;-29
2023/03/30 08:43:31;;;;;;;8.63;1.85;;;;;;;13.16;81.67;100656.84;5035476;28;96825;-29
2023/03/30 08:45:59;;;;;;;16.17;2.22;;;;;;;13.24;80.88;100642.66;5034910;28;101149;-29
2023/03/30 08:48:29;;;;;;;13.70;1.33;;;;;;;13.22;81.19;100658.22;5034918;28;101003;-29
2023/03/30 08:51:02;;;;;;;11.07;1.85;;;;;;;13.33;80.42;100665.59;5035302;28;96795;-31
2023/03/30 08:53:30;;;;;;;11.82;1.70;;;;;;;13.35;80.26;100652.75;5035546;28;96865;-30
2023/03/30 08:56:02;;;;;;;14.20;2.00;;;;;;;13.65;79.78;100662.25;5034903;28;101021;-30
2023/03/30 08:58:42;;;;;;;5.63;1.23;;;;;;;13.79;79.14;100664.78;5034645;28;101476;-30
2023/03/30 09:01:16;;;;;;;12.73;1.83;;;;;;;14.22;77.95;100686.75;5034584;28;96761;-29
2023/03/30 09:04:01;;;;;;;12.35;2.42;;;;;;;14.29;76.66;100678.09;5035105;28;96893;-29
2023/03/30 09:06:43;;;;;;;5.22;1.60;;;;;;;14.13;76.15;100684.75;5034803;28;101150;-29
2023/03/30 09:09:14;;;;;;;11.73;2.15;;;;;;;13.99;76.37;100682.25;5035749;27;99210;-29
2023/03/30 09:11:41;;;;;;;8.65;1.88;;;;;;;13.87;76.92;100678.66;5034958;28;96573;-29
2023/03/30 09:14:24;;;;;;;7.07;1.55;;;;;;;13.71;77.60;100681.72;5018128;28;96867;-29
2023/03/30 09:17:04;;;;;;;6.05;1.58;;;;;;;13.69;77.71;100690.97;5035888;27;99277;-29
2023/03/30 09:19:56;;;;;;;9.70;1.80;;;;;;;13.60;77.40;100698.84;5034656;28;101254;-31
2023/03/30 09:22:31;;;;;;;7.22;1.17;;;;;;;13.69;77.58;100702.72;5024634;28;96837;-29
2023/03/30 09:24:58;;;;;;;12.70;1.80;;;;;;;13.70;77.60;100709.03;5034750;28;96650;-29
2023/03/30 09:27:37;;;;;;;10.85;1.92;;;;;;;13.70;77.74;100703.59;5032783;28;101105;-29
2023/03/30 09:30:17;;;;;;;10.82;1.70;;;;;;;14.05;77.00;100705.44;5034434;28;100767;-29
2023/03/30 09:32:49;;;;;;;6.60;1.40;;;;;;;14.28;75.75;100699.03;5035948;27;96714;-29
2023/03/30 09:35:23;;;;;;;12.50;2.15;;;;;;;14.20;75.60;100696.91;5036188;27;96653;-29
2023/03/30 09:37:49;;;;;;;5.60;1.33;;;;;;;14.48;75.43;100700.16;5034419;28;101302;-29
2023/03/30 09:40:31;;;;;;;13.00;1.50;;;;;;;14.64;74.58;100708.00;5035198;27;98663;-29
2023/03/30 09:43:03;;;;;;;11.02;1.55;;;;;;;14.79;73.95;100703.16;5034591;27;96496;-28
2023/03/30 09:45:32;;;;;;;5.40;1.63;;;;;;;14.74;73.97;100706.25;5034949;28;96805;-29
2023/03/30 09:48:03;;;;;;;13.15;1.50;;;;;;;14.71;73.93;100717.44;5033969;28;101533;-30
2023/03/30 09:50:29;;;;;;;6.25;2.00;;;;;;;14.73;73.07;100704.53;5035547;28;97895;-32
2023/03/30 09:53:01;;;;;;;14.55;1.58;;;;;;;14.99;73.01;100732.41;5035238;28;96651;-29
2023/03/30 09:55:32;;;;;;;12.02;2.13;;;;;;;15.13;72.12;100720.34;5034178;28;96941;-29
2023/03/30 09:58:33;;;;;;;5.00;1.83;;;;;;;15.08;71.87;100737.09;5033161;28;100842;-29
2023/03/30 10:01:12;;;;;;;6.07;1.15;;;;;;;15.06;71.34;100739.09;4992933;28;97600;-29
2023/03/30 10:03:42;;;;;;;10.02;1.77;;;;;;;15.07;71.24;100742.69;5027096;28;96762;-30
2023/03/30 10:06:20;;;;;;;6.30;1.25;;;;;;;15.16;70.53;100744.66;5034047;28;96901;-28
2023/03/30 10:08:51;;;;;;;10.05;2.40;;;;;;;14.93;71.42;100732.91;5033723;28;101143;-29
2023/03/30 10:11:33;;;;;;;9.50;1.27;;;;;;;14.92;71.49;100753.00;5033957;28;101070;-30
2023/03/30 10:13:58;;;;;;;6.30;1.70;;;;;;;14.77;71.83;100729.69;5034113;28;96574;-29
2023/03/30 10:16:27;;;;;;;8.00;2.25;;;;;;;14.84;71.58;100739.09;5035484;27;96805;-30
2023/03/30 10:18:58;;;;;;;8.73;1.80;;;;;;;14.79;71.58;100734.03;5033070;28;101119;-30
2023/03/30 10:21:27;;;;;;;9.43;2.10;;;;;;;14.88;71.31;100737.00;5033526;28;101161;-29
2023/03/30 10:24:08;;;;;;;8.55;1.42;;;;;;;15.24;71.13;100747.59;5035125;27;96576;-29
2023/03/30 10:26:36;;;;;;;7.28;1.23;;;;;;;15.45;70.71;100738.63;5034995;28;96681;-31
2023/03/30 10:29:06;;;;;;;5.35;1.23;;;;;;;15.38;70.14;100742.88;5033064;28;101328;-30
2023/03/30 10:31:38;;;;;;;6.00;1.30;;;;;;;15.62;69.00;100749.00;5033425;28;101034;-28
2023/03/30 10:34:12;;;;;;;5.67;1.27;;;;;;;15.60;69.13;100741.94;5033700;28;96673;-30
2023/03/30 10:36:39;;;;;;;6.20;1.42;;;;;;;15.40;69.46;100746.34;5033809;28;97374;-29
2023/03/30 10:39:11;;;;;;;10.52;1.52;;;;;;;15.22;70.06;100759.66;5033381;28;100657;-30
2023/03/30 10:41:40;;;;;;;9.23;1.95;;;;;;;15.06;70.36;100752.75;5033386;28;101141;-29
2023/03/30 10:44:22;;;;;;;4.50;1.70;;;;;;;14.83;70.73;100761.94;5033055;28;96703;-29
2023/03/30 10:46:48;;;;;;;;;;;;;;;14.80;70.86;100752.13;5033876;27;96867;-31
2023/03/30 10:49:30;;;;;;;7.15;1.58;;;;;;;14.90;70.55;100759.53;5034355;28;98839;-29
2023/03/30 10:52:10;;;;;;;7.68;1.83;;;;;;;14.82;70.65;100762.91;5033277;28;100700;-29
2023/03/30 10:54:55;;;;;;;12.68;1.70;;;;;;;14.76;70.87;100756.09;5033278;28;96642;-30
2023/03/30 10:57:31;;;;;;;7.43;1.17;;;;;;;14.72;70.77;100743.69;5033129;28;96822;-30
2023/03/30 11:00:14;;;;;;;4.68;1.58;;;;;;;14.62;71.17;100768.09;5033118;28;101420;-30
2023/03/30 11:02:46;;;;;;;6.82;1.23;;;;;;;14.62;71.26;100762.66;5033370;28;100921;-30
2023/03/30 11:05:16;;;;;;;15.70;1.45;;;;;;;14.56;71.17;100757.72;5034995;28;96573;-29
2023/03/30 11:07:53;;;;;;;8.20;1.52;;;;;;;14.51;71.70;100764.47;5034682;27;96460;-29
2023/03/30 11:10:20;;;;;;;10.90;1.98;;;;;;;14.54;71.15;100758.78;5032538;28;100849;-29
2023/03/30 11:12:54;;;;;;;11.20;1.88;;;;;;;14.55;71.39;100758.69;5032846;28;101548;-29
2023/03/30 11:15:34;;;;;;;7.15;0.98;;;;;;;14.56;71.62;100763.16;5016632;28;96526;-29
2023/03/30 11:18:07;;;;;;;5.20;0.85;;;;;;;14.60;71.31;100764.63;5034532;28;96661;-29
2023/03/30 11:20:39;;;;;;;12.95;1.83;;;;;;;14.56;71.60;100765.00;5032874;28;101155;-29
2023/03/30 11:23:24;;;;;;;11.43;1.52;;;;;;;14.54;71.86;100758.78;5032769;28;101077;-29
2023/03/30 11:25:56;;;;;;;12.38;1.98;;;;;;;14.46;71.68;100767.53;5034483;27;96681;-29
2023/03/30 11:28:55;;;;;;;7.28;1.63;;;;;;;14.43;71.89;100767.81;5032687;28;96870;-29
2023/03/30 11:31:51;;;;;;;6.50;1.30;;;;;;;14.28;72.11;100779.88;5032656;28;101022;-29
2023/03/30 11:34:26;;;;;;;6.18;1.83;;;;;;;14.15;72.70;100774.53;5032258;28;100750;-29